Time;durP1;ratioP1;P1;durP2;ratioP2;P2;SDS_P1;SDS_P2;PMS_P1;PMS_P2;Temp;Humidity;BMP_temperature;BMP_pressure;BME280_temperature;BME280_humidity;BME280_pressure;Samples;Min_cycle;Max_cycle;Signal;HPM_P1;HPM_P2
2022/10/20 00:00:08;;;;;;;8.98;5.00;;;10.10;99.90;;;;;;4959494;28;20102;-75
2022/10/20 00:02:33;;;;;;;8.88;4.97;;;10.00;99.90;;;;;;4952896;28;20031;-76
2022/10/20 00:04:59;;;;;;;6.47;4.50;;;10.00;99.90;;;;;;4956721;28;20098;-77
2022/10/20 00:07:25;;;;;;;10.80;4.65;;;10.00;99.90;;;;;;4956764;28;20023;-76
2022/10/20 00:09:50;;;;;;;8.48;4.60;;;10.00;99.90;;;;;;4952406;28;20038;-78
2022/10/20 00:12:16;;;;;;;8.45;4.53;;;10.00;99.90;;;;;;4945724;28;20078;-75
2022/10/20 00:14:41;;;;;;;7.07;5.00;;;10.00;99.90;;;;;;4956950;28;20060;-78
2022/10/20 00:17:07;;;;;;;9.88;5.35;;;9.90;99.90;;;;;;4954103;28;20032;-76
2022/10/20 00:19:33;;;;;;;7.18;4.70;;;9.90;99.90;;;;;;4954512;28;20023;-78
2022/10/20 00:21:59;;;;;;;9.07;4.65;;;9.90;99.90;;;;;;4961051;28;20039;-71
2022/10/20 00:24:25;;;;;;;7.40;4.57;;;9.90;99.90;;;;;;4959972;28;20035;-77
2022/10/20 00:26:53;;;;;;;13.57;5.18;;;9.90;99.90;;;;;;4959363;28;20077;-78
2022/10/20 00:29:18;;;;;;;7.35;4.85;;;9.90;99.90;;;;;;4958436;28;20040;-79
2022/10/20 00:31:44;;;;;;;6.35;4.78;;;9.90;99.90;;;;;;4958382;28;20416;-77
2022/10/20 00:34:10;;;;;;;8.48;5.07;;;9.90;99.90;;;;;;4952275;28;20117;-76
2022/10/20 00:36:36;;;;;;;6.43;4.63;;;9.90;99.90;;;;;;4956399;28;20038;-76
2022/10/20 00:39:03;;;;;;;8.10;5.10;;;9.90;99.90;;;;;;4958866;28;20043;-76
2022/10/20 00:41:32;;;;;;;11.18;4.82;;;9.90;99.90;;;;;;4948931;28;20031;-79
2022/10/20 00:44:18;;;;;;;7.82;4.82;;;9.80;99.90;;;;;;4955771;28;20038;-77
2022/10/20 00:46:44;;;;;;;10.32;5.40;;;9.80;99.90;;;;;;4957195;28;20118;-79
2022/10/20 00:49:22;;;;;;;14.60;5.38;;;9.80;99.90;;;;;;4955568;28;20122;-79
2022/10/20 00:51:49;;;;;;;5.40;4.70;;;9.80;99.90;;;;;;4944146;28;20090;-78
2022/10/20 00:54:21;;;;;;;14.57;4.93;;;9.80;99.90;;;;;;4959008;28;20463;-78
2022/10/20 00:56:48;;;;;;;12.88;5.47;;;9.80;99.90;;;;;;4962087;28;20019;-78
2022/10/20 00:59:22;;;;;;;12.68;5.03;;;9.80;99.90;;;;;;4959924;28;20035;-77
2022/10/20 01:01:48;;;;;;;7.60;4.70;;;9.80;99.90;;;;;;4957505;28;20019;-77
2022/10/20 01:04:15;;;;;;;11.10;4.55;;;9.80;99.90;;;;;;4954794;28;20397;-79
2022/10/20 01:06:40;;;;;;;7.15;4.38;;;9.80;99.90;;;;;;4956969;28;20039;-77
2022/10/20 01:09:07;;;;;;;7.57;5.30;;;9.80;99.90;;;;;;4954387;28;20039;-74
2022/10/20 01:11:41;;;;;;;10.05;4.78;;;9.80;99.90;;;;;;4964846;28;20533;-76
2022/10/20 01:14:34;;;;;;;13.23;5.30;;;9.80;99.90;;;;;;4957699;28;20049;-75
2022/10/20 01:17:28;;;;;;;16.10;4.78;;;9.80;99.90;;;;;;4955679;28;20027;-79
2022/10/20 01:20:16;;;;;;;14.27;5.38;;;9.80;99.90;;;;;;4954803;28;20035;-76
2022/10/20 01:22:54;;;;;;;7.40;4.55;;;9.80;99.90;;;;;;4955689;28;20027;-76
2022/10/20 01:26:17;;;;;;;8.30;4.65;;;9.80;99.90;;;;;;4954476;28;20114;-78
2022/10/20 01:28:58;;;;;;;8.98;4.95;;;9.80;99.90;;;;;;4905786;29;20076;-78
2022/10/20 01:31:41;;;;;;;7.97;4.57;;;9.80;99.90;;;;;;4907783;29;20028;-78
2022/10/20 01:34:32;;;;;;;7.78;4.95;;;9.70;99.90;;;;;;4903819;29;20056;-76
2022/10/20 01:37:13;;;;;;;10.93;5.50;;;9.70;99.90;;;;;;4892557;29;20032;-77
2022/10/20 01:40:04;;;;;;;8.38;5.15;;;9.70;99.90;;;;;;4907787;29;20402;-72
2022/10/20 01:42:30;;;;;;;9.45;4.60;;;9.70;99.90;;;;;;4906649;29;20119;-75
2022/10/20 01:45:04;;;;;;;11.10;5.25;;;9.70;99.90;;;;;;4891094;29;20127;-78
2022/10/20 01:47:33;;;;;;;9.38;5.13;;;9.70;99.90;;;;;;4909746;29;20036;-76
2022/10/20 01:50:01;;;;;;;11.15;4.80;;;9.70;99.90;;;;;;4907010;29;20047;-78
2022/10/20 01:52:30;;;;;;;7.68;4.78;;;9.70;99.90;;;;;;4907822;29;20055;-78
2022/10/20 01:54:56;;;;;;;8.18;5.35;;;9.70;99.90;;;;;;4906086;29;20040;-78
2022/10/20 01:57:36;;;;;;;7.72;4.60;;;9.70;99.90;;;;;;4908265;29;20039;-75
2022/10/20 02:00:08;;;;;;;9.13;5.07;;;9.70;99.90;;;;;;4945742;28;20465;-78
2022/10/20 02:02:55;;;;;;;11.27;5.38;;;9.70;99.90;;;;;;4951152;28;20138;-79
2022/10/20 02:05:27;;;;;;;12.20;5.15;;;9.70;99.90;;;;;;4961153;28;20090;-78
2022/10/20 02:07:59;;;;;;;8.88;4.82;;;9.70;99.90;;;;;;4957015;28;20031;-78
2022/10/20 02:10:31;;;;;;;8.55;5.15;;;9.70;99.90;;;;;;4961228;28;20094;-77
2022/10/20 02:13:01;;;;;;;11.77;4.80;;;9.70;99.90;;;;;;4958767;28;20520;-76
2022/10/20 02:15:32;;;;;;;9.40;5.43;;;9.80;99.90;;;;;;4955498;28;20036;-76
2022/10/20 02:18:02;;;;;;;7.80;4.50;;;9.70;99.90;;;;;;4959056;28;20023;-77
2022/10/20 02:20:30;;;;;;;16.70;5.40;;;9.70;99.90;;;;;;4966809;28;20026;-77
2022/10/20 02:23:00;;;;;;;8.95;4.88;;;9.70;99.90;;;;;;4951126;28;20473;-70
2022/10/20 02:25:28;;;;;;;6.85;4.90;;;9.70;99.90;;;;;;4947356;28;20110;-78
2022/10/20 02:27:56;;;;;;;8.48;5.00;;;9.70;99.90;;;;;;4950633;28;20089;-77
2022/10/20 02:30:21;;;;;;;9.90;4.72;;;9.70;99.90;;;;;;4955533;28;20477;-74
2022/10/20 02:32:51;;;;;;;10.93;5.22;;;9.70;99.90;;;;;;4942892;28;20035;-77
2022/10/20 02:35:20;;;;;;;5.97;4.70;;;9.70;99.90;;;;;;4956751;28;20023;-74
2022/10/20 02:37:49;;;;;;;8.85;4.68;;;9.70;99.90;;;;;;4960574;28;20109;-78
2022/10/20 02:40:15;;;;;;;7.95;4.65;;;9.70;99.90;;;;;;4951418;28;20426;-79
2022/10/20 02:42:42;;;;;;;15.00;5.32;;;9.70;99.90;;;;;;4950752;28;20028;-78
2022/10/20 02:45:08;;;;;;;10.43;5.28;;;9.80;99.90;;;;;;4957518;28;20023;-76
2022/10/20 02:47:33;;;;;;;6.63;5.03;;;9.80;99.90;;;;;;4958514;28;20031;-78
2022/10/20 02:50:00;;;;;;;7.40;5.00;;;9.80;99.90;;;;;;4953529;28;20031;-76
2022/10/20 02:52:28;;;;;;;7.95;5.05;;;9.80;99.90;;;;;;4949457;28;20058;-78
2022/10/20 02:54:54;;;;;;;9.10;4.72;;;9.80;99.90;;;;;;4957010;28;20026;-77
2022/10/20 02:57:19;;;;;;;6.72;5.15;;;9.80;99.90;;;;;;4963538;28;20109;-76
2022/10/20 02:59:47;;;;;;;8.88;5.97;;;9.80;99.90;;;;;;4959981;28;20315;-77
2022/10/20 03:02:15;;;;;;;12.32;5.53;;;9.80;99.90;;;;;;4969163;28;20038;-77
2022/10/20 03:04:41;;;;;;;8.57;4.90;;;9.80;99.90;;;;;;4952625;28;20110;-76
2022/10/20 03:07:06;;;;;;;11.05;4.60;;;9.80;99.90;;;;;;4952255;28;20264;-75
2022/10/20 03:09:32;;;;;;;6.15;5.15;;;9.80;99.90;;;;;;4954616;28;20031;-78
2022/10/20 03:12:00;;;;;;;9.73;4.95;;;9.80;99.90;;;;;;4953446;28;20019;-78
2022/10/20 03:14:25;;;;;;;7.30;4.68;;;9.80;99.90;;;;;;4950124;28;20044;-79
2022/10/20 03:16:51;;;;;;;8.88;5.55;;;9.70;99.90;;;;;;4942364;28;20103;-76
2022/10/20 03:19:19;;;;;;;7.60;4.38;;;9.70;99.90;;;;;;4953548;28;20093;-74
2022/10/20 03:21:45;;;;;;;8.90;4.95;;;9.80;99.90;;;;;;4963171;28;20061;-77
2022/10/20 03:24:13;;;;;;;6.40;4.82;;;9.70;99.90;;;;;;4957554;28;20031;-77
2022/10/20 03:26:39;;;;;;;10.25;5.30;;;9.70;99.90;;;;;;4959843;28;20022;-77
2022/10/20 03:29:05;;;;;;;11.23;5.78;;;9.70;99.90;;;;;;4959151;28;20512;-77
2022/10/20 03:31:30;;;;;;;15.23;5.43;;;9.70;99.90;;;;;;4959219;28;20051;-78
2022/10/20 03:33:56;;;;;;;8.52;4.88;;;9.70;99.90;;;;;;4953899;28;20035;-77
2022/10/20 03:36:22;;;;;;;6.20;4.80;;;9.60;99.90;;;;;;4950037;28;20031;-75
2022/10/20 03:38:48;;;;;;;7.22;5.20;;;9.70;99.90;;;;;;4948694;28;20584;-77
2022/10/20 03:41:13;;;;;;;8.38;6.03;;;9.70;99.90;;;;;;4949660;28;20082;-77
2022/10/20 03:43:41;;;;;;;7.38;5.18;;;9.60;99.90;;;;;;4949748;28;20027;-77
2022/10/20 03:46:09;;;;;;;14.10;5.70;;;9.70;99.90;;;;;;4963305;28;20034;-77
2022/10/20 03:48:35;;;;;;;13.98;5.03;;;9.70;99.90;;;;;;4947789;28;20799;-78
2022/10/20 03:51:02;;;;;;;6.60;5.32;;;9.70;99.90;;;;;;4958393;28;20046;-77
2022/10/20 03:53:28;;;;;;;12.90;5.22;;;9.70;99.90;;;;;;4965116;28;20413;-78
2022/10/20 03:55:53;;;;;;;7.90;5.10;;;9.70;99.90;;;;;;4954888;28;20090;-77
2022/10/20 03:58:19;;;;;;;7.72;5.25;;;9.70;99.90;;;;;;4953547;28;20030;-77
2022/10/20 04:00:46;;;;;;;9.98;5.22;;;9.70;99.90;;;;;;4945415;28;20038;-76
2022/10/20 04:03:11;;;;;;;8.20;5.47;;;9.70;99.90;;;;;;4948045;28;20094;-77
2022/10/20 04:05:37;;;;;;;7.90;5.65;;;9.70;99.90;;;;;;4942436;28;20035;-77
2022/10/20 04:08:06;;;;;;;7.90;5.28;;;9.70;99.90;;;;;;4947828;28;20050;-78
2022/10/20 04:10:31;;;;;;;12.68;5.40;;;9.70;99.90;;;;;;4954889;28;20062;-78
2022/10/20 04:12:58;;;;;;;9.18;5.45;;;9.70;99.90;;;;;;4954058;28;20031;-77
2022/10/20 04:15:24;;;;;;;12.77;5.10;;;9.70;99.90;;;;;;4957085;28;20118;-78
2022/10/20 04:17:52;;;;;;;9.27;5.63;;;9.70;99.90;;;;;;4963100;28;20509;-75
2022/10/20 04:20:17;;;;;;;10.80;5.22;;;9.70;99.90;;;;;;4955965;28;20059;-76
2022/10/20 04:22:43;;;;;;;10.85;5.70;;;9.70;99.90;;;;;;4958048;28;20054;-78
2022/10/20 04:25:11;;;;;;;11.05;6.00;;;9.60;99.90;;;;;;4952677;28;20064;-76
2022/10/20 04:27:40;;;;;;;13.90;5.30;;;9.60;99.90;;;;;;4945986;28;20024;-78
2022/10/20 04:30:06;;;;;;;9.32;5.65;;;9.60;99.90;;;;;;4948740;28;20094;-75
2022/10/20 04:32:35;;;;;;;10.25;6.00;;;9.60;99.90;;;;;;4951024;28;20097;-78
2022/10/20 04:35:01;;;;;;;8.82;5.30;;;9.60;99.90;;;;;;4959666;28;20369;-78
2022/10/20 04:37:27;;;;;;;12.43;6.35;;;9.70;99.90;;;;;;4958958;28;20031;-78
2022/10/20 04:39:56;;;;;;;14.57;6.47;;;9.60;99.90;;;;;;4959653;28;20049;-78
2022/10/20 04:42:24;;;;;;;11.27;5.93;;;9.70;99.90;;;;;;4956365;28;20352;-77
2022/10/20 04:44:52;;;;;;;12.88;5.88;;;9.70;99.90;;;;;;4970184;28;20187;-78
2022/10/20 04:47:17;;;;;;;8.95;6.30;;;9.70;99.90;;;;;;4959388;28;20031;-72
2022/10/20 04:49:43;;;;;;;13.32;7.03;;;9.70;99.90;;;;;;4952401;28;20031;-79
2022/10/20 04:52:09;;;;;;;12.88;6.30;;;9.70;99.90;;;;;;4952755;28;20548;-79
2022/10/20 04:54:34;;;;;;;11.23;6.20;;;9.70;99.90;;;;;;4948476;28;20020;-79
2022/10/20 04:57:00;;;;;;;13.05;6.43;;;9.70;99.90;;;;;;4951305;28;20042;-74
2022/10/20 04:59:26;;;;;;;9.40;6.30;;;9.70;99.90;;;;;;4945532;28;20046;-72
2022/10/20 05:01:54;;;;;;;8.95;5.93;;;9.80;99.90;;;;;;4958004;28;20369;-74
2022/10/20 05:04:22;;;;;;;11.45;6.78;;;9.70;99.90;;;;;;4958775;28;20042;-73
2022/10/20 05:06:48;;;;;;;10.75;6.35;;;9.80;99.90;;;;;;4955591;28;20073;-74
2022/10/20 05:09:15;;;;;;;13.25;6.53;;;9.70;99.90;;;;;;4962632;28;20404;-74
2022/10/20 05:11:41;;;;;;;11.93;6.18;;;9.70;99.90;;;;;;4959338;28;20020;-74
2022/10/20 05:14:07;;;;;;;15.80;7.20;;;9.70;99.90;;;;;;4954133;28;20027;-74
2022/10/20 05:16:33;;;;;;;12.02;6.75;;;9.70;99.90;;;;;;4951850;28;20038;-74
2022/10/20 05:19:03;;;;;;;11.20;6.00;;;9.80;99.90;;;;;;4950303;28;20022;-74
2022/10/20 05:21:30;;;;;;;7.60;5.85;;;9.80;99.90;;;;;;4948568;28;20023;-74
2022/10/20 05:23:59;;;;;;;12.15;6.80;;;9.80;99.90;;;;;;4975369;28;20056;-73
2022/10/20 05:26:33;;;;;;;9.68;6.63;;;9.80;99.90;;;;;;4957590;28;20019;-74
2022/10/20 05:28:59;;;;;;;16.20;6.60;;;9.80;99.90;;;;;;4958882;28;20404;-74
2022/10/20 05:31:25;;;;;;;9.02;5.63;;;9.80;99.90;;;;;;4956873;28;20019;-74
2022/10/20 05:33:53;;;;;;;11.00;6.88;;;9.80;99.90;;;;;;4953573;28;20028;-74
2022/10/20 05:36:23;;;;;;;11.38;6.38;;;9.80;99.90;;;;;;4953995;28;20141;-74
2022/10/20 05:38:52;;;;;;;10.70;6.43;;;9.80;99.90;;;;;;4952985;28;20016;-74
2022/10/20 05:41:22;;;;;;;14.38;6.75;;;9.80;99.90;;;;;;4951077;28;20055;-73
2022/10/20 05:43:58;;;;;;;13.00;7.00;;;9.80;99.90;;;;;;4950981;28;20081;-74
2022/10/20 05:46:26;;;;;;;9.60;6.05;;;9.80;99.90;;;;;;4955191;28;20039;-74
2022/10/20 05:48:56;;;;;;;14.80;6.70;;;9.80;99.90;;;;;;4957930;28;20019;-74
2022/10/20 05:51:25;;;;;;;13.98;6.40;;;9.80;99.90;;;;;;4955201;28;20023;-74
2022/10/20 05:53:53;;;;;;;11.95;6.35;;;9.90;99.90;;;;;;4958391;28;20042;-74
2022/10/20 05:56:20;;;;;;;10.77;6.68;;;9.80;99.90;;;;;;4958911;28;20483;-74
2022/10/20 05:58:49;;;;;;;14.95;6.43;;;9.90;99.90;;;;;;4958671;28;20065;-74
2022/10/20 06:01:19;;;;;;;10.27;6.53;;;9.90;99.90;;;;;;4954440;28;20429;-74
2022/10/20 06:03:51;;;;;;;15.77;7.20;;;9.90;99.90;;;;;;4956099;28;20035;-74
2022/10/20 06:06:19;;;;;;;14.23;7.50;;;9.90;99.90;;;;;;4946293;28;20039;-74
2022/10/20 06:08:45;;;;;;;17.52;7.07;;;9.90;99.90;;;;;;4951665;28;20118;-74
2022/10/20 06:11:16;;;;;;;13.23;7.20;;;9.90;99.90;;;;;;4946479;28;20039;-74
2022/10/20 06:13:42;;;;;;;11.77;6.75;;;9.90;99.90;;;;;;4943712;28;20019;-73
2022/10/20 06:16:19;;;;;;;8.38;6.43;;;9.90;99.90;;;;;;4957667;28;20102;-74
2022/10/20 06:18:45;;;;;;;9.15;7.22;;;9.90;99.90;;;;;;4959631;28;20413;-74
2022/10/20 06:21:17;;;;;;;11.98;6.70;;;10.00;99.90;;;;;;4956638;28;20023;-74
2022/10/20 06:23:45;;;;;;;11.75;7.35;;;10.00;99.90;;;;;;4956555;28;20023;-74
2022/10/20 06:26:13;;;;;;;16.63;6.97;;;10.00;99.90;;;;;;4956182;28;20041;-74
2022/10/20 06:28:39;;;;;;;10.50;7.63;;;10.00;99.90;;;;;;4954643;28;20108;-73
2022/10/20 06:31:13;;;;;;;11.00;6.60;;;10.00;99.90;;;;;;4948777;28;20027;-74
2022/10/20 06:33:39;;;;;;;12.70;6.97;;;10.10;99.90;;;;;;4955202;28;20515;-74
2022/10/20 06:36:07;;;;;;;14.02;7.18;;;10.10;99.90;;;;;;4955207;28;20118;-73
2022/10/20 06:38:35;;;;;;;11.30;6.30;;;10.10;99.90;;;;;;4942285;28;20403;-72
2022/10/20 06:41:07;;;;;;;15.70;6.97;;;10.20;99.90;;;;;;4953998;28;20038;-74
2022/10/20 06:43:33;;;;;;;11.65;7.43;;;10.20;99.90;;;;;;4957028;28;20023;-73
2022/10/20 06:46:07;;;;;;;12.85;7.70;;;10.30;99.90;;;;;;4959108;28;20732;-73
2022/10/20 06:48:34;;;;;;;12.55;7.80;;;10.30;99.90;;;;;;4955111;28;20039;-73
2022/10/20 06:51:02;;;;;;;10.90;7.43;;;10.40;99.90;;;;;;4952475;28;20041;-73
2022/10/20 06:53:29;;;;;;;14.18;6.85;;;10.50;99.90;;;;;;4956282;28;20640;-73
2022/10/20 06:55:58;;;;;;;8.98;7.10;;;10.50;99.90;;;;;;4951641;28;20038;-73
2022/10/20 06:58:24;;;;;;;11.48;7.32;;;10.60;99.90;;;;;;4953862;28;20107;-73
2022/10/20 07:01:06;;;;;;;9.25;6.63;;;10.60;99.90;;;;;;4948076;28;20031;-73
2022/10/20 07:03:34;;;;;;;12.20;6.70;;;10.70;99.90;;;;;;4947366;28;20512;-74
2022/10/20 07:05:59;;;;;;;14.98;7.25;;;10.80;99.90;;;;;;4953068;28;20034;-73
2022/10/20 07:08:31;;;;;;;15.77;6.60;;;10.80;99.90;;;;;;4958620;28;20490;-74
2022/10/20 07:11:11;;;;;;;12.52;7.93;;;10.80;99.90;;;;;;4953962;28;20150;-74
2022/10/20 07:13:37;;;;;;;11.55;6.88;;;10.80;99.90;;;;;;4954587;28;20027;-73
2022/10/20 07:16:06;;;;;;;14.80;6.55;;;10.80;99.90;;;;;;4954207;28;20035;-73
2022/10/20 07:18:32;;;;;;;10.70;7.00;;;10.80;99.90;;;;;;4955849;28;20011;-73
2022/10/20 07:20:59;;;;;;;12.57;6.93;;;10.80;99.90;;;;;;4950979;28;20107;-73
2022/10/20 07:23:27;;;;;;;9.50;6.95;;;10.80;99.90;;;;;;4949829;28;20031;-73
2022/10/20 07:26:19;;;;;;;16.35;7.55;;;10.90;99.90;;;;;;4952782;28;20039;-72
2022/10/20 07:28:51;;;;;;;10.98;7.13;;;10.90;99.90;;;;;;4955270;28;20668;-73
2022/10/20 07:31:21;;;;;;;9.13;7.10;;;11.00;99.90;;;;;;4954831;28;20031;-72
2022/10/20 07:33:49;;;;;;;15.07;7.60;;;11.10;99.90;;;;;;4955835;28;20090;-72
2022/10/20 07:36:20;;;;;;;13.40;7.50;;;11.20;99.90;;;;;;4955564;28;20545;-71
2022/10/20 07:38:50;;;;;;;14.25;8.02;;;11.20;99.90;;;;;;4951499;28;20034;-72
2022/10/20 07:41:16;;;;;;;11.38;7.43;;;11.20;99.90;;;;;;4950073;28;20047;-73
2022/10/20 07:43:42;;;;;;;13.32;7.60;;;11.20;99.90;;;;;;4953483;28;20379;-73
2022/10/20 07:46:09;;;;;;;11.32;8.00;;;11.30;99.90;;;;;;4958586;28;20078;-73
2022/10/20 07:48:37;;;;;;;10.85;6.90;;;11.30;99.90;;;;;;4954379;28;20101;-72
2022/10/20 07:51:15;;;;;;;11.10;7.13;;;11.40;99.90;;;;;;4949437;28;20500;-70
2022/10/20 07:53:41;;;;;;;9.75;7.25;;;11.50;99.90;;;;;;4941211;28;20049;-74
2022/10/20 07:56:09;;;;;;;15.40;7.72;;;11.50;99.90;;;;;;4948712;28;20023;-73
2022/10/20 07:58:37;;;;;;;12.50;7.28;;;11.50;99.90;;;;;;4947521;28;20031;-73
2022/10/20 08:01:06;;;;;;;13.90;7.35;;;11.50;99.90;;;;;;4949633;28;20039;-73
2022/10/20 08:03:35;;;;;;;14.43;7.82;;;11.50;99.90;;;;;;4953967;28;20028;-74
2022/10/20 08:06:04;;;;;;;11.82;7.38;;;11.60;99.90;;;;;;4952744;28;20331;-74
2022/10/20 08:08:30;;;;;;;17.92;7.13;;;11.70;99.90;;;;;;4953806;28;20059;-73
2022/10/20 08:10:57;;;;;;;18.27;7.55;;;11.70;99.90;;;;;;4951973;28;20114;-74
2022/10/20 08:13:26;;;;;;;13.30;7.38;;;11.70;99.90;;;;;;4949547;28;20059;-73
2022/10/20 08:15:52;;;;;;;173.02;74.13;;;11.80;99.90;;;;;;4955346;28;20047;-72
2022/10/20 08:18:23;;;;;;;18.42;10.05;;;11.90;99.90;;;;;;4940409;28;20023;-74
2022/10/20 08:20:48;;;;;;;12.98;7.30;;;11.90;99.90;;;;;;4952781;28;20520;-73
2022/10/20 08:23:15;;;;;;;11.52;7.85;;;12.00;99.90;;;;;;4947014;28;20067;-74
2022/10/20 08:25:43;;;;;;;14.07;8.05;;;12.10;99.90;;;;;;4942185;28;20034;-73
2022/10/20 08:28:09;;;;;;;13.20;7.50;;;12.20;99.90;;;;;;4950882;28;20095;-72
2022/10/20 08:30:37;;;;;;;16.15;8.15;;;12.30;99.90;;;;;;4955243;28;20062;-73
2022/10/20 08:33:02;;;;;;;10.18;7.63;;;12.30;99.90;;;;;;4960800;28;20492;-73
2022/10/20 08:35:28;;;;;;;14.55;7.85;;;12.40;99.90;;;;;;4964591;28;20075;-73
2022/10/20 08:37:56;;;;;;;14.18;8.82;;;12.50;99.90;;;;;;4951768;28;20465;-74
2022/10/20 08:40:30;;;;;;;17.77;9.23;;;12.70;99.90;;;;;;4955981;28;20570;-73
2022/10/20 08:42:56;;;;;;;11.23;7.90;;;12.80;99.90;;;;;;4955464;28;20031;-73
2022/10/20 08:45:25;;;;;;;20.55;10.55;;;12.80;99.90;;;;;;4950352;28;20159;-71
2022/10/20 08:47:56;;;;;;;19.85;10.10;;;13.00;99.90;;;;;;4957743;28;20471;-70
2022/10/20 08:50:23;;;;;;;13.88;7.90;;;13.10;99.90;;;;;;4957963;28;20041;-73
2022/10/20 08:52:55;;;;;;;11.13;8.15;;;13.20;99.90;;;;;;4958143;28;20023;-74
2022/10/20 08:55:31;;;;;;;14.95;8.77;;;13.30;99.90;;;;;;4957147;28;20019;-72
2022/10/20 08:58:21;;;;;;;16.23;7.68;;;13.40;99.90;;;;;;4963449;28;20023;-73
2022/10/20 09:00:53;;;;;;;18.15;8.80;;;13.50;99.90;;;;;;4956580;28;20531;-74
2022/10/20 09:03:22;;;;;;;10.60;7.50;;;13.70;99.90;;;;;;4951570;28;20035;-74
2022/10/20 09:06:11;;;;;;;16.60;8.88;;;13.80;99.90;;;;;;4952994;28;20123;-74
2022/10/20 09:08:38;;;;;;;15.57;8.45;;;14.00;99.90;;;;;;4945418;28;20031;-74
2022/10/20 09:11:07;;;;;;;16.55;8.70;;;14.10;99.90;;;;;;4953784;28;20027;-71
2022/10/20 09:13:36;;;;;;;17.33;10.13;;;14.30;99.90;;;;;;4951291;28;20195;-74
2022/10/20 09:16:06;;;;;;;17.02;8.82;;;14.40;99.90;;;;;;4956895;28;20036;-74
2022/10/20 09:18:35;;;;;;;14.02;8.15;;;14.60;99.90;;;;;;4958158;28;20019;-74
2022/10/20 09:21:05;;;;;;;18.48;8.70;;;14.90;99.90;;;;;;4971819;28;20027;-74
2022/10/20 09:23:40;;;;;;;12.55;8.45;;;15.20;99.90;;;;;;4961480;28;20122;-73
2022/10/20 09:26:17;;;;;;;12.98;8.57;;;15.10;99.90;;;;;;4952144;28;20097;-74
2022/10/20 09:28:53;;;;;;;16.30;8.43;;;15.10;99.90;;;;;;4955761;28;20023;-70
2022/10/20 09:31:38;;;;;;;17.15;8.10;;;15.10;99.90;;;;;;4953193;28;20043;-73
2022/10/20 09:34:29;;;;;;;14.40;8.48;;;15.00;99.90;;;;;;4951037;28;20028;-74
2022/10/20 09:37:01;;;;;;;16.42;9.05;;;15.20;99.90;;;;;;4952636;28;20058;-74
2022/10/20 09:39:30;;;;;;;19.23;8.85;;;15.20;99.90;;;;;;4949633;28;20027;-74
2022/10/20 09:42:03;;;;;;;14.30;8.18;;;15.30;99.90;;;;;;4945955;28;20420;-74
2022/10/20 09:44:32;;;;;;;15.27;9.27;;;15.60;99.90;;;;;;4950943;28;20074;-70
2022/10/20 09:46:59;;;;;;;16.10;8.60;;;15.70;99.90;;;;;;4956783;28;20030;-74
2022/10/20 09:49:36;;;;;;;19.98;8.73;;;15.80;99.90;;;;;;4957105;28;20031;-74
2022/10/20 09:52:12;;;;;;;12.32;8.10;;;15.90;99.90;;;;;;4956199;28;20038;-74
2022/10/20 09:54:39;;;;;;;15.55;7.97;;;16.00;99.90;;;;;;4969263;28;20029;-74
2022/10/20 09:57:14;;;;;;;10.27;8.40;;;16.00;99.90;;;;;;4953163;28;20027;-73
2022/10/20 09:59:44;;;;;;;15.07;8.07;;;16.10;99.90;;;;;;4953583;28;20035;-72
2022/10/20 10:02:16;;;;;;;13.70;8.20;;;16.10;99.90;;;;;;4951016;28;20069;-71
2022/10/20 10:04:47;;;;;;;16.03;8.37;;;16.20;99.90;;;;;;4953017;28;20031;-72
2022/10/20 10:07:25;;;;;;;16.67;8.02;;;16.30;99.90;;;;;;4952600;28;20027;-74
2022/10/20 10:10:05;;;;;;;16.95;7.78;;;16.30;99.90;;;;;;4960522;28;20090;-74
2022/10/20 10:12:33;;;;;;;14.35;7.53;;;16.30;99.90;;;;;;4954750;28;20042;-74
2022/10/20 10:15:27;;;;;;;12.57;6.53;;;16.30;99.90;;;;;;4951971;28;20035;-74
2022/10/20 10:17:56;;;;;;;10.23;6.78;;;16.40;99.90;;;;;;4954710;28;20607;-74
2022/10/20 10:20:21;;;;;;;10.07;6.53;;;16.50;99.90;;;;;;4950905;28;20540;-75
2022/10/20 10:22:47;;;;;;;11.63;6.97;;;16.50;99.90;;;;;;4956026;28;20041;-73
2022/10/20 10:25:26;;;;;;;14.75;6.47;;;16.60;99.90;;;;;;4949053;28;20106;-73
2022/10/20 10:28:07;;;;;;;15.73;7.10;;;16.60;99.90;;;;;;4952561;28;20026;-74
2022/10/20 10:30:36;;;;;;;16.67;7.15;;;16.60;99.90;;;;;;4949777;28;20046;-75
2022/10/20 10:33:22;;;;;;;12.07;7.22;;;16.70;99.90;;;;;;4953246;28;20019;-74
2022/10/20 10:35:47;;;;;;;11.27;6.75;;;16.80;99.90;;;;;;4952565;28;20122;-74
2022/10/20 10:38:13;;;;;;;11.07;6.75;;;16.80;99.90;;;;;;4958035;28;20239;-73
2022/10/20 10:40:57;;;;;;;9.93;6.93;;;16.70;99.90;;;;;;4959748;28;20034;-75
2022/10/20 10:43:44;;;;;;;10.30;7.13;;;16.60;99.90;;;;;;4957981;28;20114;-74
2022/10/20 10:46:19;;;;;;;12.60;6.65;;;16.60;99.90;;;;;;4953045;28;20055;-74
2022/10/20 10:49:07;;;;;;;12.95;6.60;;;16.60;99.90;;;;;;4949505;28;20050;-73
2022/10/20 10:52:21;;;;;;;13.82;7.00;;;16.70;99.90;;;;;;4950302;28;20035;-72
2022/10/20 10:55:14;;;;;;;23.65;8.35;;;16.70;99.90;;;;;;4943435;28;20038;-73
2022/10/20 10:57:55;;;;;;;8.43;6.13;;;16.80;99.90;;;;;;4954715;28;20031;-74
2022/10/20 11:01:07;;;;;;;14.52;6.70;;;16.80;99.90;;;;;;4961485;28;20028;-74
2022/10/20 11:04:03;;;;;;;8.00;6.85;;;16.80;99.90;;;;;;4952110;28;20050;-74
2022/10/20 11:06:41;;;;;;;9.30;6.53;;;16.70;99.90;;;;;;4954678;28;20054;-74
2022/10/20 11:09:18;;;;;;;15.20;6.50;;;16.60;99.90;;;;;;4948810;28;20073;-75
2022/10/20 11:11:56;;;;;;;13.75;6.65;;;16.60;99.90;;;;;;4953158;28;20026;-78
2022/10/20 11:14:40;;;;;;;10.73;6.95;;;16.60;99.90;;;;;;4948691;28;20015;-74
2022/10/20 11:17:05;;;;;;;15.27;7.15;;;16.60;99.90;;;;;;4949807;28;20053;-74
2022/10/20 11:19:42;;;;;;;11.95;6.85;;;16.60;99.90;;;;;;4954004;28;20432;-75
2022/10/20 11:22:27;;;;;;;17.80;6.75;;;16.60;99.90;;;;;;4955010;28;20499;-72
2022/10/20 11:25:27;;;;;;;13.75;6.90;;;16.60;99.90;;;;;;4955212;28;20660;-75
2022/10/20 11:27:56;;;;;;;13.05;7.20;;;16.50;99.90;;;;;;4950067;28;20437;-74
2022/10/20 11:30:22;;;;;;;16.40;7.85;;;16.50;99.90;;;;;;4953355;28;20125;-74
2022/10/20 11:32:59;;;;;;;10.25;7.65;;;16.50;99.90;;;;;;4955081;28;20070;-74
2022/10/20 11:35:38;;;;;;;17.95;8.13;;;16.60;99.90;;;;;;4953468;28;20468;-75
2022/10/20 11:38:19;;;;;;;14.45;7.55;;;16.60;99.90;;;;;;4954990;28;20038;-74
2022/10/20 11:40:59;;;;;;;15.90;7.72;;;16.50;99.90;;;;;;4948988;28;20023;-74
2022/10/20 11:43:32;;;;;;;20.63;8.90;;;16.50;99.90;;;;;;4953932;28;20019;-73
2022/10/20 11:46:11;;;;;;;19.08;8.65;;;16.60;99.90;;;;;;4953523;28;20110;-75
2022/10/20 11:48:46;;;;;;;11.15;7.38;;;16.60;99.90;;;;;;4952613;28;20431;-75
2022/10/20 11:51:30;;;;;;;15.25;7.30;;;16.50;99.90;;;;;;4957145;28;20468;-75
2022/10/20 11:54:14;;;;;;;13.38;7.65;;;16.60;99.90;;;;;;4958043;28;20031;-74
2022/10/20 11:57:10;;;;;;;31.48;15.25;;;16.60;99.90;;;;;;4953870;28;20081;-72
2022/10/20 12:00:03;;;;;;;13.10;7.55;;;16.60;99.90;;;;;;4950910;28;20027;-75
2022/10/20 12:02:43;;;;;;;12.40;7.80;;;16.40;99.90;;;;;;4955180;28;20027;-75
2022/10/20 12:05:21;;;;;;;14.55;8.02;;;16.40;99.90;;;;;;4948411;28;20461;-75
2022/10/20 12:07:50;;;;;;;20.75;8.43;;;16.30;99.90;;;;;;4954095;28;20050;-75
2022/10/20 12:10:57;;;;;;;16.90;8.05;;;16.30;99.90;;;;;;4953258;28;20031;-75
2022/10/20 12:13:34;;;;;;;14.90;8.95;;;16.20;99.90;;;;;;4954320;28;20044;-75
2022/10/20 12:16:00;;;;;;;16.40;8.25;;;16.10;99.90;;;;;;4954336;28;20038;-74
2022/10/20 12:18:34;;;;;;;25.90;8.63;;;16.10;99.90;;;;;;4958161;28;20035;-74
2022/10/20 12:21:08;;;;;;;15.20;8.70;;;16.10;99.90;;;;;;4959183;28;20532;-75
2022/10/20 12:23:45;;;;;;;19.85;9.10;;;16.00;99.90;;;;;;4956522;28;20156;-74
2022/10/20 12:27:07;;;;;;;14.55;8.48;;;15.90;99.90;;;;;;4950100;28;20028;-75
2022/10/20 12:29:32;;;;;;;22.02;9.43;;;15.70;99.90;;;;;;4935217;28;20130;-75
2022/10/20 12:32:20;;;;;;;16.42;9.77;;;15.50;99.90;;;;;;4951805;28;20123;-75
2022/10/20 12:34:55;;;;;;;21.10;10.52;;;15.40;99.90;;;;;;4966446;28;20030;-74
2022/10/20 12:37:24;;;;;;;23.90;10.00;;;15.30;99.90;;;;;;4960764;28;20019;-76
2022/10/20 12:39:54;;;;;;;21.65;10.63;;;15.00;99.90;;;;;;4959734;28;20023;-76
2022/10/20 12:42:23;;;;;;;23.08;11.30;;;14.00;99.90;;;;;;4963119;28;20050;-77
2022/10/20 12:44:49;;;;;;;25.65;11.95;;;14.30;99.90;;;;;;4975645;28;20115;-77
2022/10/20 12:47:28;;;;;;;31.50;12.23;;;14.30;99.90;;;;;;4956572;28;20054;-75
2022/10/20 12:50:39;;;;;;;21.13;13.77;;;14.40;99.90;;;;;;4953616;28;20043;-77
2022/10/20 12:53:15;;;;;;;34.80;17.80;;;14.10;99.90;;;;;;4955472;28;20103;-74
2022/10/20 12:55:47;;;;;;;23.00;13.75;;;14.40;99.90;;;;;;4953880;28;20032;-77
2022/10/20 12:58:16;;;;;;;20.05;12.18;;;14.60;99.90;;;;;;4958512;28;20476;-77
2022/10/20 13:00:50;;;;;;;22.15;12.25;;;14.50;99.90;;;;;;4960840;28;20047;-77
2022/10/20 13:03:31;;;;;;;25.58;13.57;;;14.50;99.90;;;;;;4961747;28;20023;-78
2022/10/20 13:06:00;;;;;;;25.35;13.55;;;14.50;99.90;;;;;;4958728;28;20032;-76